createdAt,value
2022-11-20T00:01:34.874Z,97484.64
2022-11-20T00:04:03.213Z,97479.69
2022-11-20T00:06:31.790Z,97473.30
2022-11-20T00:09:02.633Z,97470.35
2022-11-20T00:11:32.235Z,97471.48
2022-11-20T00:14:02.704Z,97469.98
2022-11-20T00:16:34.365Z,97467.61
2022-11-20T00:19:02.546Z,97457.16
2022-11-20T00:21:31.226Z,97450.41
2022-11-20T00:23:59.769Z,97447.22
2022-11-20T00:26:28.911Z,97441.09
2022-11-20T00:29:01.462Z,97433.98
2022-11-20T00:31:30.827Z,97425.05
2022-11-20T00:33:59.122Z,97419.94
2022-11-20T00:36:30.119Z,97421.45
2022-11-20T00:39:00.047Z,97424.63
2022-11-20T00:41:30.125Z,97424.27
2022-11-20T00:43:58.818Z,97428.16
2022-11-20T00:46:28.605Z,97428.41
2022-11-20T00:48:57.223Z,97435.18
2022-11-20T00:51:27.287Z,97432.45
2022-11-20T00:54:01.148Z,97428.35
2022-11-20T00:56:29.697Z,97428.74
2022-11-20T00:59:01.931Z,97430.96
2022-11-20T01:01:31.156Z,97430.07
2022-11-20T01:04:01.325Z,97427.79
2022-11-20T01:06:36.478Z,97429.70
2022-11-20T01:09:09.570Z,97430.91
2022-11-20T01:11:40.159Z,97425.23
2022-11-20T01:14:12.510Z,97422.48
2022-11-20T01:16:43.692Z,97416.90
2022-11-20T01:19:17.880Z,97409.02
2022-11-20T01:21:49.964Z,97399.48
2022-11-20T01:24:20.114Z,97390.00
2022-11-20T01:26:50.792Z,97387.19
2022-11-20T01:29:25.222Z,97387.26
2022-11-20T01:31:53.983Z,97388.39
2022-11-20T01:34:23.572Z,97377.80
2022-11-20T01:36:53.828Z,97367.59
2022-11-20T01:39:25.459Z,97360.38
2022-11-20T01:42:14.458Z,97358.33
2022-11-20T01:44:55.441Z,97359.77
2022-11-20T01:47:32.693Z,97363.45
2022-11-20T01:50:18.240Z,97364.51
2022-11-20T01:53:01.074Z,97361.27
2022-11-20T01:55:34.222Z,97348.94
2022-11-20T01:58:03.805Z,97339.60
2022-11-20T02:00:32.378Z,97330.73
2022-11-20T02:03:06.571Z,97330.04
2022-11-20T02:05:40.274Z,97323.91
2022-11-20T02:08:08.650Z,97318.71
2022-11-20T02:10:36.826Z,97311.15
2022-11-20T02:13:24.013Z,97307.31
2022-11-20T02:15:53.040Z,97310.35
2022-11-20T02:18:22.737Z,97310.66
2022-11-20T02:20:57.733Z,97312.02
2022-11-20T02:23:34.644Z,97311.59
2022-11-20T02:26:06.998Z,97307.66
2022-11-20T02:28:35.093Z,97303.57
2022-11-20T02:31:03.580Z,97300.79
2022-11-20T02:33:31.759Z,97305.27
2022-11-20T02:35:59.744Z,97300.73
2022-11-20T02:38:28.185Z,97296.27
2022-11-20T02:40:56.239Z,97283.47
2022-11-20T02:43:24.706Z,97251.79
2022-11-20T02:45:52.707Z,97228.08
2022-11-20T02:48:20.943Z,97234.02
2022-11-20T02:50:49.028Z,97242.66
2022-11-20T02:53:17.019Z,97243.44
2022-11-20T02:55:45.314Z,97249.81
2022-11-20T02:58:13.514Z,97248.83
2022-11-20T03:00:41.561Z,97245.06
2022-11-20T03:03:09.633Z,97235.22
2022-11-20T03:05:37.584Z,97231.04
2022-11-20T03:08:05.766Z,97234.10
2022-11-20T03:10:33.774Z,97237.02
2022-11-20T03:13:02.081Z,97235.44
2022-11-20T03:15:31.934Z,97228.27
2022-11-20T03:17:59.936Z,97224.33
2022-11-20T03:20:28.028Z,97224.10
2022-11-20T03:22:56.306Z,97224.11
2022-11-20T03:25:24.558Z,97223.05
2022-11-20T03:27:52.713Z,97212.69
2022-11-20T03:30:21.092Z,97197.08
2022-11-20T03:32:49.045Z,97192.78
2022-11-20T03:35:17.294Z,97174.59
2022-11-20T03:37:46.859Z,97157.71
2022-11-20T03:40:15.027Z,97154.77
2022-11-20T03:42:46.188Z,97144.83
2022-11-20T03:45:18.928Z,97137.25
2022-11-20T03:47:47.504Z,97160.77
2022-11-20T03:50:15.869Z,97169.48
2022-11-20T03:52:44.050Z,97171.98
2022-11-20T03:55:12.198Z,97160.23
2022-11-20T03:57:40.336Z,97162.88
2022-11-20T04:00:09.162Z,97175.02
2022-11-20T04:02:37.054Z,97172.89
2022-11-20T04:05:05.542Z,97177.42
2022-11-20T04:07:35.368Z,97172.35
2022-11-20T04:10:03.614Z,97173.71
2022-11-20T04:12:34.584Z,97166.64
2022-11-20T04:15:02.796Z,97160.85
2022-11-20T04:17:30.807Z,97166.88
2022-11-20T04:19:59.042Z,97162.02
2022-11-20T04:22:27.286Z,97164.01
2022-11-20T04:24:55.428Z,97169.09
2022-11-20T04:27:23.549Z,97166.64
2022-11-20T04:29:51.638Z,97158.23
2022-11-20T04:32:19.690Z,97154.59
2022-11-20T04:34:47.681Z,97156.95
2022-11-20T04:37:15.831Z,97159.98
2022-11-20T04:39:44.966Z,97155.95
2022-11-20T04:42:31.250Z,97150.59
2022-11-20T04:44:59.618Z,97148.39
2022-11-20T04:47:27.755Z,97147.39
2022-11-20T04:49:56.208Z,97146.64
2022-11-20T04:52:24.222Z,97132.23
2022-11-20T04:54:53.969Z,97124.59
2022-11-20T04:57:22.326Z,97120.48
2022-11-20T04:59:50.341Z,97119.20
2022-11-20T05:02:18.890Z,97122.77
2022-11-20T05:04:47.110Z,97118.44
2022-11-20T05:07:15.559Z,97114.20
2022-11-20T05:09:43.589Z,97113.35
2022-11-20T05:12:11.534Z,97105.23
2022-11-20T05:14:39.788Z,97102.59
2022-11-20T05:17:11.806Z,97098.95
2022-11-20T05:19:40.160Z,97094.25
2022-11-20T05:22:08.220Z,97089.47
2022-11-20T05:24:36.466Z,97081.65
2022-11-20T05:27:04.573Z,97077.55
2022-11-20T05:29:32.754Z,97073.91
2022-11-20T05:32:00.919Z,97077.53
2022-11-20T05:34:28.986Z,97074.11
2022-11-20T05:36:57.036Z,97073.42
2022-11-20T05:39:25.122Z,97076.76
2022-11-20T05:42:13.114Z,97078.64
2022-11-20T05:44:41.206Z,97081.29
2022-11-20T05:47:09.301Z,97092.27
2022-11-20T05:49:37.370Z,97097.43
2022-11-20T05:52:05.790Z,97104.25
2022-11-20T05:54:33.819Z,97109.93
2022-11-20T05:57:02.480Z,97114.11
2022-11-20T05:59:30.519Z,97119.87
2022-11-20T06:01:58.484Z,97112.67
2022-11-20T06:04:26.724Z,97106.54
2022-11-20T06:06:54.737Z,97109.52
2022-11-20T06:09:23.008Z,97108.00
2022-11-20T06:11:51.294Z,97114.14
2022-11-20T06:14:19.597Z,97116.20
2022-11-20T06:16:47.684Z,97115.21
2022-11-20T06:19:16.249Z,97104.77
2022-11-20T06:21:44.365Z,97105.55
2022-11-20T06:24:12.931Z,97108.81
2022-11-20T06:26:41.030Z,97112.64
2022-11-20T06:29:09.199Z,97107.03
2022-11-20T06:31:38.941Z,97104.77
2022-11-20T06:34:07.408Z,97106.76
2022-11-20T06:36:35.702Z,97105.17
2022-11-20T06:39:04.266Z,97104.88
2022-11-20T06:41:32.480Z,97112.27
2022-11-20T06:44:00.583Z,97111.39
2022-11-20T06:46:28.748Z,97111.95
2022-11-20T06:48:56.891Z,97115.53
2022-11-20T06:51:25.026Z,97122.08
2022-11-20T06:53:53.128Z,97128.10
2022-11-20T06:56:21.352Z,97133.18
2022-11-20T06:58:49.586Z,97135.00
2022-11-20T07:01:17.839Z,97138.12
2022-11-20T07:03:49.978Z,97139.43
2022-11-20T07:06:21.181Z,97142.79
2022-11-20T07:08:53.628Z,97143.73
2022-11-20T07:11:21.827Z,97135.02
2022-11-20T07:13:50.513Z,97126.14
2022-11-20T07:16:18.657Z,97130.02
2022-11-20T07:18:50.444Z,97127.25
2022-11-20T07:21:19.212Z,97128.66
2022-11-20T07:23:47.476Z,97133.61
2022-11-20T07:26:15.695Z,97128.10
2022-11-20T07:28:46.219Z,97132.15
2022-11-20T07:31:18.763Z,97130.66
2022-11-20T07:33:47.806Z,97127.05
2022-11-20T07:36:15.989Z,97130.56
2022-11-20T07:38:44.172Z,97136.21
2022-11-20T07:41:12.399Z,97135.66
2022-11-20T07:43:41.656Z,97125.69
2022-11-20T07:46:10.080Z,97125.26
2022-11-20T07:48:38.226Z,97132.42
2022-11-20T07:51:06.797Z,97138.08
2022-11-20T07:53:34.870Z,97135.08
2022-11-20T07:56:04.244Z,97134.58
2022-11-20T07:58:34.198Z,97147.27
2022-11-20T08:01:07.650Z,97158.74
2022-11-20T08:03:38.858Z,97157.65
2022-11-20T08:06:07.694Z,97149.02
2022-11-20T08:08:40.018Z,97152.01
2022-11-20T08:11:29.766Z,97155.52
2022-11-20T08:14:12.941Z,97161.52
2022-11-20T08:16:46.078Z,97156.45
2022-11-20T08:19:15.924Z,97153.99
2022-11-20T08:21:44.689Z,97159.77
2022-11-20T08:24:13.005Z,97162.44
2022-11-20T08:26:42.356Z,97162.70
2022-11-20T08:29:10.399Z,97162.42
2022-11-20T08:31:38.607Z,97162.59
2022-11-20T08:34:26.840Z,97160.80
2022-11-20T08:36:54.894Z,97160.20
2022-11-20T08:39:23.897Z,97157.05
2022-11-20T08:41:52.276Z,97159.58
2022-11-20T08:44:20.458Z,97156.20
2022-11-20T08:46:48.656Z,97154.17
2022-11-20T08:49:16.910Z,97156.70
2022-11-20T08:51:45.165Z,97164.91
2022-11-20T08:54:13.330Z,97171.64
2022-11-20T08:56:41.455Z,97177.30
2022-11-20T08:59:26.920Z,97182.12
2022-11-20T09:01:57.521Z,97186.79
2022-11-20T09:04:25.627Z,97181.85
2022-11-20T09:06:54.038Z,97179.44
2022-11-20T09:09:22.416Z,97175.29
2022-11-20T09:11:51.495Z,97167.02
2022-11-20T09:14:19.647Z,97163.46
2022-11-20T09:16:47.799Z,97170.48
2022-11-20T09:22:05.462Z,97180.66
2022-11-20T09:24:33.659Z,97177.95
2022-11-20T09:27:06.342Z,97173.59
2022-11-20T09:29:34.354Z,97171.48
2022-11-20T09:32:02.744Z,97167.98
2022-11-20T09:34:30.802Z,97167.33
2022-11-20T09:37:01.540Z,97170.61
2022-11-20T09:39:32.677Z,97171.62
2022-11-20T09:42:44.533Z,97170.80
2022-11-20T09:45:25.479Z,97162.55
2022-11-20T09:48:21.534Z,97165.08
2022-11-20T09:51:07.180Z,97165.74
2022-11-20T09:53:42.321Z,97153.19
2022-11-20T09:56:12.262Z,97149.66
2022-11-20T09:58:47.153Z,97155.77
2022-11-20T10:01:27.809Z,97161.66
2022-11-20T10:03:59.358Z,97153.10
2022-11-20T10:06:38.980Z,97146.97
2022-11-20T10:09:12.915Z,97149.90
2022-11-20T10:12:20.028Z,97150.86
2022-11-20T10:15:02.113Z,97143.37
2022-11-20T10:17:45.228Z,97143.23
2022-11-20T10:20:36.170Z,97143.16
2022-11-20T10:23:25.807Z,97144.69
2022-11-20T10:26:24.362Z,97147.29
2022-11-20T10:29:16.623Z,97148.84
2022-11-20T10:31:53.435Z,97141.86
2022-11-20T10:34:56.583Z,97133.98
2022-11-20T10:37:30.290Z,97136.36
2022-11-20T10:40:01.542Z,97136.35
2022-11-20T10:42:49.218Z,97140.23
2022-11-20T10:45:40.005Z,97145.51
2022-11-20T10:48:08.463Z,97144.16
2022-11-20T10:50:41.401Z,97137.66
2022-11-20T10:53:32.620Z,97140.80
2022-11-20T10:56:17.385Z,97142.79
2022-11-20T10:58:51.262Z,97142.35
2022-11-20T11:01:27.744Z,97141.84
2022-11-20T11:03:58.345Z,97142.31
2022-11-20T11:06:36.873Z,97143.23
2022-11-20T11:09:13.624Z,97141.02
2022-11-20T11:11:41.902Z,97139.09
2022-11-20T11:14:14.829Z,97139.10
2022-11-20T11:16:54.577Z,97140.59
2022-11-20T11:19:23.821Z,97148.98
2022-11-20T11:21:57.776Z,97149.13
2022-11-20T11:24:46.495Z,97156.16
2022-11-20T11:27:18.938Z,97157.02
2022-11-20T11:29:48.282Z,97155.28
2022-11-20T11:32:21.895Z,97148.44
2022-11-20T11:35:05.593Z,97142.99
2022-11-20T11:37:39.651Z,97143.35
2022-11-20T11:40:27.330Z,97145.98
2022-11-20T11:43:00.975Z,97149.59
2022-11-20T11:45:29.447Z,97151.79
2022-11-20T11:48:04.881Z,97155.23
2022-11-20T11:50:32.929Z,97151.29
2022-11-20T11:53:14.699Z,97157.02
2022-11-20T11:55:58.863Z,97161.18
2022-11-20T11:58:36.073Z,97159.26
2022-11-20T12:01:41.957Z,97154.33
2022-11-20T12:04:30.579Z,97154.63
2022-11-20T12:10:41.730Z,97161.55
2022-11-20T12:13:16.088Z,97160.21
2022-11-20T12:15:47.504Z,97159.30
2022-11-20T12:18:21.573Z,97157.71
2022-11-20T12:21:07.205Z,97153.52
2022-11-20T12:23:45.460Z,97143.32
2022-11-20T12:26:37.315Z,97143.16
2022-11-20T12:29:38.794Z,97146.35
2022-11-20T12:32:15.749Z,97155.48
2022-11-20T12:34:55.747Z,97160.35
2022-11-20T12:37:39.165Z,97168.27
2022-11-20T12:40:28.765Z,97168.05
2022-11-20T12:43:32.862Z,97170.48
2022-11-20T12:46:17.405Z,97168.36
2022-11-20T12:49:04.355Z,97170.42
2022-11-20T12:51:38.720Z,97159.30
2022-11-20T12:54:33.257Z,97158.33
2022-11-20T12:57:20.056Z,97160.25
2022-11-20T13:00:12.532Z,97154.10
2022-11-20T13:03:01.868Z,97147.90
2022-11-20T13:05:38.885Z,97153.80
2022-11-20T13:08:23.815Z,97161.12
2022-11-20T13:11:14.174Z,97160.29
2022-11-20T13:14:00.798Z,97155.27
2022-11-20T13:16:45.259Z,97153.30
2022-11-20T13:19:16.921Z,97158.55
2022-11-20T13:21:48.063Z,97161.83
2022-11-20T13:24:28.640Z,97164.11
2022-11-20T13:27:03.846Z,97168.54
2022-11-20T13:29:33.595Z,97170.73
2022-11-20T13:32:26.366Z,97166.69
2022-11-20T13:34:59.876Z,97161.42
2022-11-20T13:37:39.274Z,97160.89
2022-11-20T13:40:10.484Z,97159.74
2022-11-20T13:43:09.637Z,97160.88
2022-11-20T13:45:37.790Z,97169.39
2022-11-20T13:48:21.148Z,97182.47
2022-11-20T13:51:12.509Z,97188.53
2022-11-20T13:54:06.667Z,97181.04
2022-11-20T13:56:59.708Z,97177.14
2022-11-20T13:59:46.190Z,97185.70
2022-11-20T14:02:16.752Z,97186.20
2022-11-20T14:04:49.773Z,97189.22
2022-11-20T14:07:21.645Z,97191.55
2022-11-20T14:09:55.674Z,97192.52
2022-11-20T14:12:29.969Z,97189.01
2022-11-20T14:14:58.766Z,97181.91
2022-11-20T14:17:30.018Z,97183.48
2022-11-20T14:20:05.570Z,97193.36
2022-11-20T14:22:33.805Z,97197.68
2022-11-20T14:25:15.284Z,97191.52
2022-11-20T14:27:51.999Z,97191.65
2022-11-20T14:30:23.400Z,97199.33
2022-11-20T14:32:54.963Z,97194.97
2022-11-20T14:35:27.755Z,97190.08
2022-11-20T14:37:57.515Z,97182.84
2022-11-20T14:40:27.390Z,97179.48
2022-11-20T14:42:58.097Z,97180.45
2022-11-20T14:45:27.512Z,97187.44
2022-11-20T14:47:58.878Z,97191.77
2022-11-20T14:50:29.462Z,97186.17
2022-11-20T14:53:00.319Z,97174.20
2022-11-20T14:55:38.303Z,97177.55
2022-11-20T14:58:22.096Z,97190.15
2022-11-20T15:00:59.384Z,97196.83
2022-11-20T15:03:33.713Z,97202.52
2022-11-20T15:06:02.755Z,97202.81
2022-11-20T15:08:31.309Z,97202.17
2022-11-20T15:11:00.194Z,97200.00
2022-11-20T15:13:31.552Z,97197.85
2022-11-20T15:16:02.457Z,97201.86
2022-11-20T15:18:34.019Z,97192.55
2022-11-20T15:21:05.046Z,97192.17
2022-11-20T15:23:36.928Z,97190.32
2022-11-20T15:26:09.818Z,97186.88
2022-11-20T15:28:42.139Z,97180.63
2022-11-20T15:31:16.898Z,97175.91
2022-11-20T15:33:45.779Z,97178.16
2022-11-20T15:36:18.518Z,97176.48
2022-11-20T15:38:46.932Z,97176.17
2022-11-20T15:41:15.039Z,97177.31
2022-11-20T15:43:43.243Z,97177.22
2022-11-20T15:46:15.830Z,97173.19
2022-11-20T15:48:48.309Z,97174.24
2022-11-20T15:51:38.994Z,97172.02
2022-11-20T15:54:15.991Z,97165.69
2022-11-20T15:56:44.013Z,97170.98
2022-11-20T15:59:12.070Z,97177.90
2022-11-20T16:01:40.231Z,97178.04
2022-11-20T16:04:14.267Z,97169.28
2022-11-20T16:06:42.660Z,97168.66
2022-11-20T16:09:10.950Z,97176.77
2022-11-20T16:11:39.473Z,97180.02
2022-11-20T16:14:26.310Z,97182.73
2022-11-20T16:16:54.444Z,97185.71
2022-11-20T16:19:22.509Z,97192.24
2022-11-20T16:21:50.586Z,97194.59
2022-11-20T16:24:18.598Z,97191.02
2022-11-20T16:26:47.674Z,97190.11
2022-11-20T16:29:15.886Z,97188.36
2022-11-20T16:31:44.000Z,97192.77
2022-11-20T16:34:12.817Z,97197.39
2022-11-20T16:36:44.697Z,97199.67
2022-11-20T16:39:19.129Z,97193.52
2022-11-20T16:41:51.335Z,97187.62
2022-11-20T16:44:19.294Z,97182.08
2022-11-20T16:46:47.325Z,97182.53
2022-11-20T16:49:15.685Z,97179.03
2022-11-20T16:51:43.886Z,97179.57
2022-11-20T16:54:16.508Z,97183.52
2022-11-20T16:56:48.450Z,97188.77
2022-11-20T16:59:16.466Z,97190.20
2022-11-20T17:01:44.428Z,97185.50
2022-11-20T17:04:12.621Z,97183.61
2022-11-20T17:06:44.481Z,97189.39
2022-11-20T17:09:13.879Z,97193.65
2022-11-20T17:11:42.719Z,97203.05
2022-11-20T17:14:12.065Z,97209.98
2022-11-20T17:16:40.513Z,97209.52
2022-11-20T17:19:09.013Z,97208.39
2022-11-20T17:21:37.622Z,97211.57
2022-11-20T17:24:08.693Z,97220.23
2022-11-20T17:26:39.580Z,97220.91
2022-11-20T17:29:12.721Z,97221.60
2022-11-20T17:31:41.701Z,97224.79
2022-11-20T17:34:13.405Z,97228.67
2022-11-20T17:36:45.656Z,97228.98
2022-11-20T17:39:15.008Z,97231.32
2022-11-20T17:41:43.330Z,97233.36
2022-11-20T17:44:12.672Z,97232.23
2022-11-20T17:46:41.392Z,97236.63
2022-11-20T17:49:09.441Z,97236.48
2022-11-20T17:51:37.387Z,97236.34
2022-11-20T17:54:07.817Z,97242.04
2022-11-20T17:56:55.372Z,97244.46
2022-11-20T17:59:23.780Z,97241.72
2022-11-20T18:01:52.030Z,97237.02
2022-11-20T18:04:20.518Z,97238.75
2022-11-20T18:06:48.459Z,97238.21
2022-11-20T18:09:16.734Z,97235.15
2022-11-20T18:11:45.600Z,97236.79
2022-11-20T18:14:36.801Z,97236.94
2022-11-20T18:17:08.928Z,97233.27
2022-11-20T18:19:55.628Z,97225.67
2022-11-20T18:22:30.968Z,97214.48
2022-11-20T18:24:59.115Z,97214.99
2022-11-20T18:27:27.395Z,97210.04
2022-11-20T18:29:55.346Z,97203.03
2022-11-20T18:32:23.972Z,97199.30
2022-11-20T18:34:52.360Z,97197.01
2022-11-20T18:37:20.444Z,97200.41
2022-11-20T18:39:50.657Z,97201.97
2022-11-20T18:42:37.660Z,97202.80
2022-11-20T18:45:06.765Z,97208.31
2022-11-20T18:47:38.075Z,97214.35
2022-11-20T18:50:08.686Z,97213.65
2022-11-20T18:52:46.991Z,97213.71
2022-11-20T18:55:15.303Z,97209.77
2022-11-20T18:57:43.623Z,97212.80
2022-11-20T19:00:12.477Z,97217.79
2022-11-20T19:02:43.208Z,97218.77
2022-11-20T19:05:14.063Z,97213.08
2022-11-20T19:07:42.594Z,97204.41
2022-11-20T19:10:11.147Z,97207.08
2022-11-20T19:12:39.543Z,97212.38
2022-11-20T19:15:08.195Z,97214.58
2022-11-20T19:17:36.310Z,97216.85
2022-11-20T19:20:04.906Z,97219.95
2022-11-20T19:22:33.077Z,97219.80
2022-11-20T19:25:01.218Z,97215.32
2022-11-20T19:27:29.546Z,97209.69
2022-11-20T19:30:03.225Z,97205.51
2022-11-20T19:32:32.757Z,97199.50
2022-11-20T19:35:01.425Z,97196.77
2022-11-20T19:37:32.150Z,97200.10
2022-11-20T19:40:04.235Z,97210.57
2022-11-20T19:42:32.457Z,97211.67
2022-11-20T19:45:00.534Z,97211.00
2022-11-20T19:47:46.370Z,97211.90
2022-11-20T19:50:16.999Z,97210.54
2022-11-20T19:52:45.146Z,97209.39
2022-11-20T19:55:13.134Z,97209.54
2022-11-20T19:57:41.059Z,97216.75
2022-11-20T20:00:10.762Z,97219.27
2022-11-20T20:02:38.793Z,97220.17
2022-11-20T20:05:07.294Z,97223.80
2022-11-20T20:07:35.554Z,97224.73
2022-11-20T20:10:03.954Z,97223.98
2022-11-20T20:12:32.046Z,97226.33
2022-11-20T20:15:00.118Z,97225.88
2022-11-20T20:17:28.760Z,97219.20
2022-11-20T20:19:57.077Z,97213.60
2022-11-20T20:22:25.403Z,97212.48
2022-11-20T20:24:53.418Z,97216.98
2022-11-20T20:27:21.449Z,97219.06
2022-11-20T20:29:49.799Z,97209.51
2022-11-20T20:32:17.765Z,97196.84
2022-11-20T20:34:45.843Z,97186.28
2022-11-20T20:37:14.121Z,97190.31
2022-11-20T20:39:42.157Z,97200.79
2022-11-20T20:42:10.221Z,97206.48
2022-11-20T20:44:57.358Z,97206.63
2022-11-20T20:47:33.070Z,97202.91
2022-11-20T20:50:08.774Z,97206.26
2022-11-20T20:52:37.159Z,97211.27
2022-11-20T20:55:05.774Z,97219.86
2022-11-20T20:57:34.262Z,97224.64
2022-11-20T21:00:02.992Z,97224.02
2022-11-20T21:02:31.378Z,97220.77
2022-11-20T21:05:00.136Z,97225.92
2022-11-20T21:07:28.343Z,97226.29
2022-11-20T21:09:56.566Z,97217.86
2022-11-20T21:12:24.723Z,97217.61
2022-11-20T21:14:52.770Z,97220.40
2022-11-20T21:17:20.821Z,97223.49
2022-11-20T21:19:48.791Z,97222.42
2022-11-20T21:22:17.094Z,97224.81
2022-11-20T21:24:45.149Z,97221.98
2022-11-20T21:27:13.756Z,97217.64
2022-11-20T21:29:41.776Z,97211.39
2022-11-20T21:32:09.865Z,97202.95
2022-11-20T21:34:37.970Z,97198.02
2022-11-20T21:37:06.237Z,97192.44
2022-11-20T21:39:34.459Z,97188.41
2022-11-20T21:42:02.431Z,97187.48
2022-11-20T21:44:31.669Z,97185.21
2022-11-20T21:47:00.281Z,97181.33
2022-11-20T21:49:28.537Z,97185.34
2022-11-20T21:51:56.526Z,97193.05
2022-11-20T21:54:24.865Z,97194.05
2022-11-20T21:56:53.303Z,97192.60
2022-11-20T21:59:22.226Z,97187.42
2022-11-20T22:01:50.391Z,97183.16
2022-11-20T22:04:18.681Z,97178.45
2022-11-20T22:06:46.897Z,97178.14
2022-11-20T22:09:15.271Z,97178.52
2022-11-20T22:11:43.414Z,97183.66
2022-11-20T22:14:20.915Z,97185.87
2022-11-20T22:16:51.322Z,97188.30
2022-11-20T22:19:20.838Z,97187.33
2022-11-20T22:21:50.780Z,97180.48
2022-11-20T22:24:20.327Z,97181.62
2022-11-20T22:26:48.924Z,97178.42
2022-11-20T22:29:20.985Z,97175.67
2022-11-20T22:31:53.141Z,97174.77
2022-11-20T22:34:21.496Z,97167.02
2022-11-20T22:36:49.984Z,97161.19
2022-11-20T22:39:18.740Z,97158.30
2022-11-20T22:41:46.989Z,97143.80
2022-11-20T22:44:16.027Z,97142.44
2022-11-20T22:46:44.053Z,97136.95
2022-11-20T22:49:12.449Z,97123.06
2022-11-20T22:51:41.947Z,97118.88
2022-11-20T22:54:13.792Z,97111.80
2022-11-20T22:56:42.409Z,97105.95
2022-11-20T22:59:10.779Z,97104.42
2022-11-20T23:01:39.012Z,97103.87
2022-11-20T23:04:10.804Z,97103.73
2022-11-20T23:06:39.459Z,97102.20
2022-11-20T23:09:08.763Z,97097.42
2022-11-20T23:11:37.878Z,97095.58
2022-11-20T23:14:16.925Z,97087.00
2022-11-20T23:16:45.027Z,97083.66
2022-11-20T23:19:16.066Z,97081.61
2022-11-20T23:21:44.150Z,97082.20
2022-11-20T23:24:12.370Z,97076.03
2022-11-20T23:26:41.929Z,97072.15
2022-11-20T23:29:09.981Z,97068.89
2022-11-20T23:31:38.000Z,97065.75
2022-11-20T23:34:06.126Z,97063.38
2022-11-20T23:36:34.278Z,97062.38
2022-11-20T23:39:02.377Z,97061.77
2022-11-20T23:41:30.595Z,97061.17
2022-11-20T23:43:58.652Z,97066.86
2022-11-20T23:46:26.824Z,97066.92
2022-11-20T23:48:54.878Z,97062.36
2022-11-20T23:51:22.923Z,97063.95
2022-11-20T23:53:51.049Z,97062.57
2022-11-20T23:56:19.210Z,97061.19
2022-11-20T23:58:47.319Z,97058.36
